Time;durP1;ratioP1;P1;durP2;ratioP2;P2;SDS_P1;SDS_P2;PMS_P1;PMS_P2;Temp;Humidity;BMP_temperature;BMP_pressure;BME280_temperature;BME280_humidity;BME280_pressure;Samples;Min_cycle;Max_cycle;Signal;HPM_P1;HPM_P2
2021/05/03 00:00:27;;;;;;;4.63;2.17;;;2.20;99.90;;;0.37;80.96;101807.63;3484104;40;102895;-39
2021/05/03 00:02:54;;;;;;;3.93;2.00;;;2.20;99.90;;;0.32;80.65;101798.22;3500401;40;104192;-38
2021/05/03 00:05:26;;;;;;;6.57;2.13;;;2.10;99.90;;;0.25;81.31;101797.84;3475934;40;104940;-38
2021/05/03 00:07:54;;;;;;;4.10;2.28;;;2.00;99.90;;;0.22;81.37;101798.97;3499759;40;102408;-39
2021/05/03 00:10:22;;;;;;;4.13;1.90;;;2.00;99.90;;;0.18;81.41;101794.81;3484040;40;102482;-39
2021/05/03 00:12:49;;;;;;;4.43;2.10;;;2.00;99.90;;;0.12;82.01;101806.88;3500454;40;102653;-38
2021/05/03 00:15:18;;;;;;;4.63;2.25;;;1.90;99.90;;;0.09;81.47;101809.81;3475499;40;103245;-38
2021/05/03 00:17:46;;;;;;;3.22;1.90;;;1.90;99.90;;;-0.06;81.63;101789.50;3509175;40;102571;-38
2021/05/03 00:20:15;;;;;;;3.97;2.15;;;1.90;99.90;;;0.05;81.83;101810.16;3491666;40;103286;-38
2021/05/03 00:22:50;;;;;;;4.72;2.10;;;1.90;99.90;;;-0.03;81.83;101808.06;3499963;40;102343;-39
2021/05/03 00:25:17;;;;;;;3.85;2.00;;;1.80;99.90;;;-0.03;82.52;101805.38;3492022;40;102204;-38
2021/05/03 00:27:44;;;;;;;3.95;2.08;;;1.80;99.90;;;-0.03;82.08;101808.06;3491897;40;102430;-38
2021/05/03 00:30:15;;;;;;;3.97;2.17;;;1.80;99.90;;;-0.08;81.50;101805.75;3467818;40;102565;-39
2021/05/03 00:32:45;;;;;;;5.40;2.30;;;1.70;99.90;;;-0.11;82.06;101802.44;3491754;40;102415;-38
2021/05/03 00:35:15;;;;;;;4.20;2.30;;;1.70;99.90;;;-0.12;81.94;101800.72;3499608;40;104303;-38
2021/05/03 00:37:43;;;;;;;4.82;2.40;;;1.70;99.90;;;-0.12;82.24;101798.91;3492075;40;102469;-38
2021/05/03 00:40:11;;;;;;;4.20;2.30;;;1.70;99.90;;;-0.13;82.47;101801.69;3483030;40;104097;-38
2021/05/03 00:42:38;;;;;;;3.95;2.10;;;1.70;99.90;;;-0.14;81.92;101800.84;3499636;40;104139;-39
2021/05/03 00:45:12;;;;;;;4.05;2.17;;;1.70;99.90;;;-0.16;82.14;101795.59;3499922;40;102253;-38
2021/05/03 00:47:40;;;;;;;4.20;2.40;;;1.70;99.90;;;-0.18;81.95;101794.88;3499931;40;102354;-38
2021/05/03 00:50:11;;;;;;;4.05;2.35;;;1.70;99.90;;;-0.22;82.30;101793.41;3483664;40;104513;-38
2021/05/03 00:52:41;;;;;;;4.18;2.20;;;1.60;99.90;;;-0.24;82.58;101792.66;3499766;40;102467;-38
2021/05/03 00:55:11;;;;;;;3.88;2.42;;;1.60;99.90;;;-0.27;82.32;101798.25;3491431;40;104896;-38
2021/05/03 00:57:40;;;;;;;4.20;1.88;;;1.60;99.90;;;-0.29;82.37;101794.81;3491665;40;102353;-39
2021/05/03 01:00:12;;;;;;;4.50;2.05;;;1.50;99.90;;;-0.32;82.70;101784.31;3483313;40;102994;-39
2021/05/03 01:02:40;;;;;;;4.18;2.30;;;1.50;99.90;;;-0.36;83.03;101796.28;3483804;40;102574;-38
2021/05/03 01:05:10;;;;;;;3.50;2.10;;;1.50;99.90;;;-0.41;82.30;101795.78;3491244;40;104322;-39
2021/05/03 01:07:40;;;;;;;3.88;2.17;;;1.40;99.90;;;-0.47;82.84;101792.59;3499651;40;104573;-39
2021/05/03 01:10:08;;;;;;;;;;;1.40;99.90;;;-0.50;82.93;101790.13;3491902;40;103100;-38
2021/05/03 01:12:37;;;;;;;3.88;2.20;;;1.40;99.90;;;-0.52;82.64;101789.41;3499764;40;102713;-38
2021/05/03 01:15:09;;;;;;;4.72;2.50;;;1.30;99.90;;;-0.52;83.52;101786.72;3483097;40;103806;-38
2021/05/03 01:17:41;;;;;;;5.57;2.20;;;1.30;99.90;;;-0.52;83.73;101799.25;3491459;40;102528;-38
2021/05/03 01:20:13;;;;;;;4.45;2.50;;;1.30;99.90;;;-0.53;84.34;101794.88;3499642;40;104291;-38
2021/05/03 01:22:42;;;;;;;4.15;2.10;;;1.30;99.90;;;-0.53;83.93;101798.41;3491647;40;103916;-38
2021/05/03 01:25:12;;;;;;;4.43;2.30;;;1.30;99.90;;;-0.58;83.62;101800.56;3499045;40;105682;-38
2021/05/03 01:27:40;;;;;;;3.97;2.47;;;1.30;99.90;;;-0.58;83.76;101795.19;3499456;40;102502;-38
2021/05/03 01:30:10;;;;;;;;;;;1.20;99.90;;;-0.56;83.72;101801.31;3492526;40;104324;-38
2021/05/03 01:32:38;;;;;;;;;;;1.30;99.90;;;-0.61;83.72;101807.03;3493396;40;102931;-38
2021/05/03 01:35:09;;;;;;;4.50;2.00;;;1.20;99.90;;;-0.62;82.93;101807.13;3492291;40;104374;-38
2021/05/03 01:37:36;;;;;;;5.90;2.65;;;1.20;99.90;;;-0.65;83.04;101808.25;3492587;40;104709;-38
2021/05/03 01:40:06;;;;;;;4.78;2.30;;;1.20;99.90;;;-0.62;83.59;101809.81;3618465;23;104516;-40
2021/05/03 01:42:37;;;;;;;4.28;2.33;;;1.20;99.90;;;-0.63;83.32;101803.63;3516762;39;102474;-40
2021/05/03 01:45:06;;;;;;;4.90;2.63;;;1.20;99.90;;;-0.65;84.58;101810.03;3512288;39;104179;-40
2021/05/03 01:47:35;;;;;;;4.72;2.05;;;1.20;99.90;;;-0.66;84.30;101805.66;3520719;39;104740;-40
2021/05/03 01:50:04;;;;;;;;;;;1.20;99.90;;;-0.68;84.76;101812.97;3505345;39;105304;-40
2021/05/03 01:52:32;;;;;;;5.87;2.50;;;1.10;99.90;;;-0.73;83.84;101805.25;3513226;39;102440;-40
2021/05/03 01:54:59;;;;;;;;;;;1.10;99.90;;;-0.74;84.58;101799.06;3496767;39;104319;-40
2021/05/03 01:57:26;;;;;;;5.50;2.40;;;1.10;99.90;;;-0.73;84.25;101811.47;3504540;39;102314;-40
2021/05/03 01:59:54;;;;;;;5.00;2.53;;;1.10;99.90;;;-0.75;85.20;101818.78;3496449;39;102310;-40
2021/05/03 02:02:21;;;;;;;9.47;3.10;;;1.10;99.90;;;-0.75;85.16;101821.47;3512641;39;102549;-40
2021/05/03 02:04:49;;;;;;;4.60;2.33;;;1.10;99.90;;;-0.80;85.48;101820.91;3512481;39;103107;-40
2021/05/03 02:07:17;;;;;;;4.88;2.40;;;1.10;99.90;;;-0.82;84.89;101824.69;3512524;39;102371;-40
2021/05/03 02:09:46;;;;;;;5.43;2.75;;;1.00;99.90;;;-0.84;84.49;101827.47;3512527;39;103125;-40
2021/05/03 02:12:15;;;;;;;6.60;2.85;;;1.00;99.90;;;-0.87;84.30;101835.75;3512397;39;104243;-40
2021/05/03 02:14:43;;;;;;;4.70;2.58;;;1.00;99.90;;;-0.96;84.39;101823.88;3520609;39;104118;-40
2021/05/03 02:17:12;;;;;;;4.35;2.60;;;0.90;99.90;;;-0.93;84.85;101822.81;3504635;39;103255;-40
2021/05/03 02:19:40;;;;;;;3.90;2.10;;;0.90;99.90;;;-0.93;84.46;101821.00;3512544;39;105959;-40
2021/05/03 02:22:07;;;;;;;4.30;2.30;;;0.90;99.90;;;-0.92;84.59;101828.06;3504158;39;103297;-40
2021/05/03 02:24:35;;;;;;;4.70;2.67;;;1.00;99.90;;;-0.95;84.23;101825.59;3495985;39;103177;-40
2021/05/03 02:27:03;;;;;;;5.13;2.65;;;0.90;99.90;;;-0.94;84.28;101827.31;3504072;39;102557;-40
2021/05/03 02:29:31;;;;;;;6.07;2.58;;;0.90;99.90;;;-1.00;83.69;101822.41;3512390;39;102648;-40
2021/05/03 02:31:58;;;;;;;4.75;2.42;;;0.90;99.90;;;-0.97;84.18;101824.00;3504351;39;105358;-40
2021/05/03 02:34:26;;;;;;;4.67;2.53;;;0.90;99.90;;;-1.02;84.64;101827.88;3496564;39;103525;-40
2021/05/03 02:36:55;;;;;;;4.63;2.83;;;0.80;99.90;;;-1.05;84.38;101822.75;3512859;39;102303;-40
2021/05/03 02:39:23;;;;;;;6.53;3.15;;;0.80;99.90;;;-1.08;84.27;101822.94;3504443;39;103565;-40
2021/05/03 02:41:50;;;;;;;5.57;2.53;;;0.80;99.90;;;-1.09;85.11;101821.25;3503656;39;102546;-40
2021/05/03 02:44:17;;;;;;;5.90;2.40;;;0.80;99.90;;;-1.11;85.44;101815.13;3512520;39;102429;-41
2021/05/03 02:46:45;;;;;;;5.10;3.08;;;0.80;99.90;;;-1.11;84.83;101808.94;3504593;39;103215;-40
2021/05/03 02:49:13;;;;;;;4.60;2.60;;;0.70;99.90;;;-1.11;85.47;101814.28;3495858;39;102315;-40
2021/05/03 02:51:41;;;;;;;4.97;2.60;;;0.70;99.90;;;-1.13;85.80;101816.25;3503972;39;102357;-40
2021/05/03 02:54:09;;;;;;;4.97;2.55;;;0.70;99.90;;;-1.15;85.74;101813.66;3504211;39;104553;-40
2021/05/03 02:56:37;;;;;;;4.60;2.75;;;0.70;99.90;;;-1.13;85.65;101816.25;3520747;39;104565;-40
2021/05/03 02:59:04;;;;;;;4.82;2.80;;;0.70;99.90;;;-1.17;85.13;101803.06;3504086;39;102220;-40
2021/05/03 03:01:32;;;;;;;5.35;2.60;;;0.70;99.90;;;-1.20;86.42;101805.94;3512594;39;102337;-40
2021/05/03 03:03:59;;;;;;;6.07;3.40;;;0.70;99.90;;;-1.19;85.93;101802.31;3503936;39;103976;-40
2021/05/03 03:06:26;;;;;;;6.00;3.33;;;0.70;99.90;;;-1.18;86.38;101809.41;3504014;39;102329;-40
2021/05/03 03:08:53;;;;;;;7.03;3.03;;;0.70;99.90;;;-1.21;86.29;101803.41;3512475;39;102273;-40
2021/05/03 03:11:22;;;;;;;5.03;3.00;;;0.70;99.90;;;-1.21;86.69;101804.22;3512597;39;102240;-40
2021/05/03 03:13:49;;;;;;;4.70;2.78;;;0.70;99.90;;;-1.24;86.85;101807.13;3512296;39;102752;-40
2021/05/03 03:18:59;;;;;;;8.32;3.40;;;0.60;99.90;;;-1.25;86.26;101807.25;3520544;39;104209;-40
2021/05/03 03:21:27;;;;;;;6.05;2.90;;;0.60;99.90;;;-1.26;85.86;101806.38;3521023;39;102320;-40
2021/05/03 03:23:54;;;;;;;5.40;2.92;;;0.60;99.90;;;-1.26;86.82;101808.22;3511910;39;103921;-40
2021/05/03 03:26:22;;;;;;;5.63;3.00;;;0.60;99.90;;;-1.28;86.77;101808.31;3512122;39;102310;-40
2021/05/03 03:28:50;;;;;;;5.72;2.88;;;0.60;99.90;;;-1.29;86.15;101813.81;3503990;39;105652;-40
2021/05/03 03:31:18;;;;;;;6.28;2.92;;;0.60;99.90;;;-1.31;87.01;101809.44;3504647;39;102556;-41
2021/05/03 03:33:45;;;;;;;5.53;2.95;;;0.60;99.90;;;-1.33;86.53;101808.69;3520097;39;103258;-40
2021/05/03 03:36:13;;;;;;;5.60;2.97;;;0.60;99.90;;;-1.33;86.40;101810.50;3504210;39;103105;-41
2021/05/03 03:38:40;;;;;;;5.07;2.87;;;0.50;99.90;;;-1.36;86.30;101803.53;3504332;39;102397;-40
2021/05/03 03:41:07;;;;;;;6.78;3.38;;;0.50;99.90;;;-1.32;86.78;101810.38;3495430;39;102510;-40
2021/05/03 03:43:34;;;;;;;7.68;3.70;;;0.50;99.90;;;-1.31;87.36;101804.06;3503638;39;104274;-40
2021/05/03 03:46:01;;;;;;;6.70;3.85;;;0.50;99.90;;;-1.29;87.28;101800.41;3512282;39;102123;-40
2021/05/03 03:48:29;;;;;;;7.00;4.13;;;0.60;99.90;;;-1.20;87.80;101799.75;3503815;39;103992;-40
2021/05/03 03:50:56;;;;;;;7.75;3.85;;;0.60;99.90;;;-1.15;87.70;101794.91;3512101;39;102661;-40
2021/05/03 03:53:23;;;;;;;6.65;4.25;;;0.70;99.90;;;-1.10;87.68;101800.78;3511582;39;104471;-41
2021/05/03 03:55:51;;;;;;;8.10;4.45;;;0.70;99.90;;;-1.07;87.81;101803.22;3512291;39;103608;-40
2021/05/03 03:58:18;;;;;;;9.37;4.60;;;0.80;99.90;;;-1.08;88.34;101789.97;3495838;39;103997;-40
2021/05/03 04:00:45;;;;;;;9.83;5.00;;;0.80;99.90;;;-1.04;87.50;101792.31;3504294;39;102304;-40
2021/05/03 04:03:13;;;;;;;7.90;4.13;;;0.80;99.90;;;-1.04;87.41;101794.13;3512026;39;103173;-40
2021/05/03 04:06:00;;;;;;;8.85;4.30;;;0.80;99.90;;;-1.00;87.46;101792.09;3511978;39;102368;-40
2021/05/03 04:08:41;;;;;;;6.95;4.15;;;0.80;99.90;;;-0.95;86.93;101789.91;3515570;39;102344;-40
2021/05/03 04:24:22;;;;;;;7.35;3.90;;;0.90;99.90;;;-0.87;87.90;101798.25;3512257;39;104467;-40
2021/05/03 04:26:49;;;;;;;7.07;4.20;;;1.00;99.90;;;-0.93;88.00;101793.34;3520610;39;103986;-40
2021/05/03 04:29:16;;;;;;;9.13;4.57;;;1.00;99.90;;;-0.89;88.04;101800.19;3503715;39;102175;-40
2021/05/03 04:31:43;;;;;;;8.63;4.10;;;0.90;99.90;;;-0.87;87.93;101803.59;3511817;39;102269;-40
2021/05/03 04:34:11;;;;;;;7.37;4.50;;;1.00;99.90;;;-0.85;88.05;101803.50;3503794;39;103972;-40
2021/05/03 04:36:38;;;;;;;10.18;4.55;;;1.00;99.90;;;-0.83;87.11;101801.56;3520091;39;102162;-40
2021/05/03 04:39:06;;;;;;;9.00;4.57;;;1.00;99.90;;;-0.80;87.57;101804.84;3511218;39;103152;-40
2021/05/03 04:41:33;;;;;;;10.90;5.35;;;1.00;99.90;;;-0.75;87.75;101800.03;3520486;39;102245;-42
2021/05/03 04:44:00;;;;;;;9.60;6.10;;;1.00;99.90;;;-0.66;87.32;101803.84;3503756;39;103126;-40
2021/05/03 04:46:27;;;;;;;13.95;6.70;;;1.10;99.90;;;-0.53;87.89;101798.41;3495763;39;105397;-40
2021/05/03 04:48:55;;;;;;;12.15;7.55;;;1.20;99.90;;;-0.39;87.38;101792.00;3512002;39;105842;-40
2021/05/03 04:51:23;;;;;;;13.05;9.13;;;1.30;99.90;;;-0.24;87.43;101797.16;3512809;39;102306;-40
2021/05/03 04:53:50;;;;;;;13.48;8.77;;;1.50;99.90;;;-0.01;88.38;101792.69;3511417;39;105027;-41
2021/05/03 04:56:17;;;;;;;11.60;7.67;;;1.60;99.90;;;0.18;88.26;101784.09;3511956;39;102345;-40
2021/05/03 04:58:44;;;;;;;11.35;7.10;;;1.80;99.90;;;0.43;88.32;101796.41;3511584;39;103974;-40
2021/05/03 05:01:11;;;;;;;14.57;7.33;;;2.00;99.90;;;0.69;88.74;101801.53;3511607;39;102357;-40
2021/05/03 05:03:38;;;;;;;11.02;6.53;;;2.20;99.90;;;0.93;88.89;101797.81;3511129;39;104881;-40
2021/05/03 05:06:06;;;;;;;9.63;6.38;;;2.50;99.90;;;1.14;88.83;101800.59;3511114;39;102462;-40
2021/05/03 05:08:33;;;;;;;12.23;6.40;;;2.70;99.90;;;1.37;88.44;101805.06;3512226;39;104647;-40
2021/05/03 05:11:00;;;;;;;12.82;6.57;;;2.80;99.90;;;1.59;88.31;101809.47;3512006;39;102303;-40
2021/05/03 05:13:27;;;;;;;10.68;5.90;;;3.00;99.90;;;1.77;87.71;101808.91;3519607;39;103161;-39
2021/05/03 05:15:58;;;;;;;11.48;6.28;;;3.20;99.90;;;1.96;87.45;101809.03;3503360;39;102347;-40
2021/05/03 05:18:26;;;;;;;10.73;5.80;;;3.40;99.90;;;2.14;87.41;101811.13;3512356;39;102200;-40
2021/05/03 05:20:53;;;;;;;12.32;6.13;;;3.60;99.90;;;2.29;87.20;101806.25;3511484;39;102292;-40
2021/05/03 05:23:21;;;;;;;11.50;6.22;;;3.70;99.90;;;2.41;86.59;101801.63;3519680;39;102242;-39
2021/05/03 05:25:48;;;;;;;10.15;5.82;;;3.90;99.90;;;2.56;86.10;101812.91;3520145;39;102399;-40
2021/05/03 05:28:15;;;;;;;10.40;5.50;;;4.00;99.90;;;2.66;85.22;101816.50;3528871;39;103180;-40
2021/05/03 05:30:43;;;;;;;10.18;5.85;;;4.10;99.90;;;2.75;85.08;101811.28;3519895;39;103207;-40
2021/05/03 05:33:09;;;;;;;10.20;6.10;;;4.20;99.90;;;2.84;84.14;101815.84;3528483;39;102270;-40
2021/05/03 05:35:37;;;;;;;9.85;5.65;;;4.30;99.90;;;2.94;83.93;101822.13;3511791;39;103345;-40
2021/05/03 05:38:03;;;;;;;13.07;5.78;;;4.40;99.90;;;3.05;83.30;101817.59;3511676;39;103166;-40
2021/05/03 05:40:30;;;;;;;11.68;5.57;;;4.50;99.90;;;3.19;82.40;101816.34;3510718;39;103571;-40
2021/05/03 05:42:57;;;;;;;12.32;5.70;;;4.60;99.90;;;3.33;82.28;101807.00;3520024;39;103242;-40
2021/05/03 05:45:27;;;;;;;12.55;5.90;;;4.80;99.90;;;3.48;80.61;101808.31;3503605;39;102896;-40
2021/05/03 05:47:54;;;;;;;12.90;5.82;;;4.90;99.90;;;3.70;80.20;101801.75;3528008;39;102277;-42
2021/05/03 05:50:22;;;;;;;11.13;5.83;;;5.10;99.90;;;3.85;79.16;101794.06;3511493;39;102393;-41
2021/05/03 05:52:49;;;;;;;9.73;5.70;;;5.20;99.90;;;4.05;79.44;101796.75;3519334;39;102302;-41
2021/05/03 05:55:16;;;;;;;11.43;6.13;;;5.40;99.90;;;4.29;78.09;101795.41;3511434;39;102883;-41
2021/05/03 05:57:43;;;;;;;15.43;6.47;;;5.60;99.90;;;4.52;76.90;101800.44;3503348;39;103106;-40
2021/05/03 06:00:12;;;;;;;12.63;6.22;;;5.80;99.90;;;4.66;75.74;101799.94;3519751;39;102283;-40
2021/05/03 06:02:40;;;;;;;12.60;5.78;;;5.90;99.90;;;4.81;75.91;101802.16;3519426;39;102449;-40
2021/05/03 06:05:09;;;;;;;7.40;4.40;;;6.10;99.90;;;4.97;76.20;101802.34;3511209;39;102394;-40
2021/05/03 06:07:37;;;;;;;8.88;5.10;;;6.20;99.90;;;5.03;75.07;101793.59;3511100;39;103066;-41
2021/05/03 06:10:07;;;;;;;9.25;4.90;;;6.30;99.90;;;5.04;73.61;101800.75;3519535;39;103232;-41
2021/05/03 06:12:34;;;;;;;9.35;4.65;;;6.40;99.90;;;5.08;73.47;101790.44;3528752;39;103275;-41
2021/05/03 06:15:06;;;;;;;9.90;5.88;;;6.50;99.90;;;5.11;72.84;101794.72;3528235;39;104466;-41
2021/05/03 06:17:34;;;;;;;10.65;5.15;;;6.50;99.90;;;5.10;72.66;101799.25;3520489;39;104013;-41
2021/05/03 06:20:02;;;;;;;9.63;5.03;;;6.50;99.90;;;5.16;72.83;101800.53;3530125;39;103282;-40
2021/05/03 06:22:32;;;;;;;9.43;4.60;;;6.50;99.90;;;5.27;73.04;101799.44;3521077;39;104191;-40
2021/05/03 06:25:00;;;;;;;11.02;5.32;;;6.60;99.90;;;5.41;73.01;101796.19;3528442;39;103235;-41
2021/05/03 06:27:28;;;;;;;10.05;5.25;;;6.70;99.90;;;5.55;73.41;101800.22;3520863;39;103075;-41
2021/05/03 06:29:55;;;;;;;9.50;5.47;;;6.80;99.90;;;5.67;71.14;101802.69;3528912;39;102335;-40
2021/05/03 06:32:22;;;;;;;7.72;4.68;;;6.90;99.90;;;5.83;71.08;101796.56;3520802;39;103148;-41
2021/05/03 06:34:51;;;;;;;8.60;5.00;;;7.10;99.90;;;5.96;71.24;101801.56;3512547;39;102209;-41
2021/05/03 06:37:18;;;;;;;7.10;4.20;;;7.20;99.90;;;6.08;70.80;101794.06;3512465;39;105955;-41
2021/05/03 06:39:45;;;;;;;10.10;4.93;;;7.30;99.90;;;6.03;69.68;101795.41;3529291;39;103227;-41
2021/05/03 06:42:12;;;;;;;9.90;4.47;;;7.40;99.90;;;6.01;68.54;101797.41;3520158;39;102349;-41
2021/05/03 06:44:40;;;;;;;;;;;7.40;99.90;;;5.91;68.12;101802.03;3521720;39;103164;-41
2021/05/03 06:47:10;;;;;;;8.20;3.95;;;7.30;99.90;;;5.85;68.32;101795.41;3529645;39;103133;-41
2021/05/03 06:49:37;;;;;;;8.82;4.45;;;7.30;99.90;;;5.83;67.79;101800.09;3520398;39;105271;-41
2021/05/03 06:52:05;;;;;;;9.00;4.90;;;7.20;99.90;;;6.01;70.49;101796.56;3512400;39;102424;-41
2021/05/03 06:54:32;;;;;;;8.65;4.35;;;7.30;99.90;;;6.15;69.04;101795.13;3528419;39;102850;-42
2021/05/03 06:56:59;;;;;;;11.75;5.35;;;7.40;99.90;;;6.40;69.03;101796.13;3528681;39;102361;-40
2021/05/03 06:59:26;;;;;;;8.45;5.10;;;7.60;99.90;;;6.61;66.57;101794.88;3520900;39;102412;-41
2021/05/03 07:01:53;;;;;;;10.75;4.93;;;7.80;99.90;;;6.75;66.24;101805.09;3520034;39;103952;-41
2021/05/03 07:04:20;;;;;;;11.13;4.90;;;8.00;99.90;;;6.97;65.53;101802.81;3512343;39;105062;-41
2021/05/03 07:06:47;;;;;;;12.07;5.00;;;8.10;99.90;;;7.13;64.32;101804.72;3520417;39;103133;-41
2021/05/03 07:09:14;;;;;;;8.90;4.80;;;8.30;99.90;;;7.30;64.29;101797.47;3512222;39;103591;-41
2021/05/03 07:11:42;;;;;;;11.55;5.18;;;8.50;99.90;;;7.44;63.64;101798.69;3529158;39;103284;-41
2021/05/03 07:14:10;;;;;;;;;;;8.60;99.90;;;7.55;62.64;101802.06;3529230;39;103297;-41
2021/05/03 07:16:37;;;;;;;8.15;4.13;;;8.70;99.90;;;7.71;63.66;101793.94;3521599;39;103841;-41
2021/05/03 07:19:05;;;;;;;8.30;4.80;;;8.80;99.90;;;7.81;60.42;101798.34;3520662;39;102395;-41
2021/05/03 07:21:35;;;;;;;7.50;4.25;;;9.00;99.90;;;8.02;60.42;101793.25;3520410;39;102126;-41
2021/05/03 07:24:05;;;;;;;6.90;4.20;;;9.10;99.90;;;8.12;57.80;101789.50;3512423;39;102455;-41
2021/05/03 07:26:34;;;;;;;12.20;4.50;;;9.30;99.90;;;8.28;58.42;101791.34;3529944;39;103061;-41
2021/05/03 07:29:02;;;;;;;8.07;4.45;;;9.40;99.90;;;8.41;57.63;101788.06;3529131;39;102335;-41
2021/05/03 07:31:29;;;;;;;11.07;4.65;;;9.50;99.90;;;8.70;60.29;101787.47;3520798;39;104925;-40
2021/05/03 07:33:56;;;;;;;7.13;4.60;;;9.70;99.90;;;8.90;58.74;101787.06;3528378;39;103214;-41
2021/05/03 07:36:23;;;;;;;8.82;4.25;;;9.90;99.90;;;9.01;57.57;101792.09;3529125;39;102140;-41
2021/05/03 07:38:52;;;;;;;7.53;4.45;;;10.10;99.90;;;9.20;57.58;101782.66;3529864;39;102926;-41
2021/05/03 07:41:19;;;;;;;7.75;4.18;;;10.20;99.90;;;9.34;54.42;101782.88;3642926;22;103811;-39
2021/05/03 07:43:47;;;;;;;11.32;4.78;;;10.40;99.90;;;9.33;54.79;101790.22;3509197;40;102235;-38
2021/05/03 07:46:14;;;;;;;7.90;4.23;;;10.50;99.90;;;9.50;57.03;101784.63;3508541;40;103128;-38
2021/05/03 07:48:41;;;;;;;9.05;4.65;;;10.60;99.90;;;9.64;55.55;101788.44;3508653;40;102461;-38
2021/05/03 07:51:08;;;;;;;9.55;4.25;;;10.70;99.90;;;9.77;55.16;101793.28;3516388;40;102497;-38
2021/05/03 07:53:35;;;;;;;6.35;3.97;;;10.80;99.90;;;9.75;51.45;101781.72;3491859;40;102250;-39
2021/05/03 07:56:03;;;;;;;8.53;3.67;;;10.90;99.90;;;9.85;51.07;101776.00;3500466;40;103056;-39
2021/05/03 07:58:30;;;;;;;6.07;3.67;;;11.00;99.90;;;9.97;53.52;101776.41;3500741;40;102453;-38
2021/05/03 08:00:57;;;;;;;7.10;3.72;;;11.10;99.90;;;10.06;52.18;101778.00;3508491;40;103109;-38
2021/05/03 08:03:24;;;;;;;6.05;3.20;;;11.20;99.90;;;10.09;49.91;101774.94;3509072;40;102252;-38
2021/05/03 08:05:52;;;;;;;6.30;3.30;;;11.30;98.50;;;10.22;51.17;101774.28;3508576;40;102296;-38
2021/05/03 08:08:19;;;;;;;10.00;3.83;;;11.30;99.90;;;10.08;46.67;101767.81;3508458;40;103202;-39
2021/05/03 08:10:46;;;;;;;5.47;3.10;;;11.40;94.70;;;10.10;46.82;101760.28;3500483;40;102393;-39
2021/05/03 08:13:13;;;;;;;4.72;3.20;;;11.40;94.80;;;10.24;46.93;101753.13;3492059;40;102307;-39
2021/05/03 08:15:45;;;;;;;7.38;3.42;;;11.40;94.90;;;10.48;48.04;101756.66;3492340;40;103099;-39
2021/05/03 08:18:12;;;;;;;8.25;3.30;;;11.60;96.40;;;10.56;48.21;101759.28;3508599;40;102321;-38
2021/05/03 08:20:39;;;;;;;5.30;3.05;;;11.70;95.80;;;10.72;47.39;101760.94;3508176;40;103127;-39
2021/05/03 08:23:09;;;;;;;7.13;3.27;;;11.80;94.90;;;10.79;45.32;101752.84;3509622;40;102389;-39
2021/05/03 08:25:37;;;;;;;6.40;3.50;;;11.90;93.10;;;10.91;46.89;101761.38;3508319;40;103103;-38
2021/05/03 08:28:07;;;;;;;5.32;3.22;;;12.00;94.40;;;11.10;46.04;101757.19;3508689;40;102216;-39
2021/05/03 08:30:34;;;;;;;6.20;3.03;;;12.20;93.70;;;11.27;46.83;101746.84;3492101;40;102496;-39
2021/05/03 08:33:02;;;;;;;6.13;3.10;;;12.30;95.10;;;11.42;44.67;101741.31;3500158;40;102353;-39
2021/05/03 08:35:29;;;;;;;;;;;12.40;91.90;;;11.54;43.67;101748.97;3500853;40;102638;-39
2021/05/03 08:37:56;;;;;;;6.65;2.70;;;12.60;90.70;;;11.66;44.34;101748.25;3508181;40;102212;-38
2021/05/03 08:40:23;;;;;;;6.20;3.00;;;12.70;90.80;;;11.69;42.29;101757.13;3498517;40;104192;-39
2021/05/03 08:42:50;;;;;;;6.25;2.92;;;12.80;86.00;;;11.79;44.55;101743.94;3508119;40;104923;-39
2021/05/03 08:45:18;;;;;;;6.30;3.50;;;12.90;90.60;;;11.89;44.53;101744.44;3507922;40;103311;-38
2021/05/03 08:48:01;;;;;;;5.75;3.40;;;13.00;90.70;;;12.06;44.89;101744.19;3508203;40;103725;-40
2021/05/03 08:50:49;;;;;;;7.43;3.38;;;13.10;91.30;;;12.03;43.36;101739.09;3494154;40;106012;-39
2021/05/03 08:55:58;;;;;;;5.22;2.63;;;13.20;91.40;;;11.90;45.69;101728.88;3509105;40;104175;-38
2021/05/03 08:58:27;;;;;;;5.90;3.22;;;13.20;90.50;;;11.66;44.01;101728.28;3508455;40;102285;-40
2021/05/03 09:00:55;;;;;;;6.13;3.05;;;13.00;86.20;;;11.85;46.28;101726.75;3508164;40;102240;-39
2021/05/03 09:03:23;;;;;;;6.63;3.15;;;13.00;91.40;;;12.05;42.69;101724.19;3508262;40;102887;-39
2021/05/03 09:05:51;;;;;;;;;;;13.10;85.70;;;12.15;41.63;101726.56;3500755;40;103360;-39
2021/05/03 09:08:29;;;;;;;8.30;3.50;;;13.30;81.80;;;12.39;43.03;101721.63;3509253;40;102643;-39
2021/05/03 09:10:57;;;;;;;5.80;3.08;;;13.50;85.20;;;12.42;41.99;101714.94;3508027;40;105036;-38
2021/05/03 09:13:30;;;;;;;6.53;3.80;;;13.50;81.90;;;12.65;40.41;101717.31;3507757;40;103180;-38
2021/05/03 09:16:26;;;;;;;5.15;3.40;;;13.70;77.80;;;12.82;39.19;101708.75;3507907;40;105380;-39
2021/05/03 09:18:53;;;;;;;5.80;3.30;;;13.90;74.60;;;12.91;41.30;101702.91;3509420;40;102235;-40
2021/05/03 09:21:29;;;;;;;6.15;3.30;;;14.00;78.10;;;13.05;42.26;101692.81;3491827;40;102849;-40
2021/05/03 09:27:01;;;;;;;5.70;3.22;;;14.30;72.10;;;13.27;39.67;101695.38;3508972;40;103924;-39
2021/05/03 09:29:44;;;;;;;6.47;3.50;;;14.40;73.20;;;13.43;40.97;101696.03;3508783;40;102379;-39
2021/05/03 09:32:24;;;;;;;6.60;3.47;;;14.50;75.10;;;13.70;39.29;101691.41;3509143;40;103118;-39
2021/05/03 09:34:54;;;;;;;8.32;3.90;;;14.60;71.20;;;13.56;37.86;101690.56;3508571;40;103221;-39
2021/05/03 09:37:33;;;;;;;7.53;3.53;;;14.70;68.00;;;13.33;37.63;101690.94;3508762;40;102837;-39
2021/05/03 09:40:06;;;;;;;6.43;3.63;;;14.60;66.50;;;13.28;37.19;101682.50;3507471;40;102820;-39
2021/05/03 09:42:53;;;;;;;5.50;3.20;;;14.50;66.10;;;13.43;37.98;101688.66;3508472;40;104028;-39
2021/05/03 09:45:34;;;;;;;6.50;3.60;;;14.50;67.10;;;13.32;36.92;101683.75;3508395;40;102636;-39
2021/05/03 09:48:02;;;;;;;5.75;3.90;;;14.60;65.30;;;13.44;37.91;101681.28;3507910;40;104871;-39
2021/05/03 09:50:32;;;;;;;6.63;3.80;;;14.60;66.50;;;13.38;36.06;101685.66;3508857;40;103213;-39
2021/05/03 09:53:18;;;;;;;5.30;3.15;;;14.60;63.30;;;13.48;37.90;101671.56;3510484;40;102532;-39
2021/05/03 09:55:57;;;;;;;6.57;4.05;;;14.60;67.80;;;13.79;36.67;101672.81;3501076;40;104158;-39
2021/05/03 09:58:25;;;;;;;6.53;3.70;;;14.80;64.00;;;13.73;35.51;101669.03;3509321;40;104937;-39
2021/05/03 10:00:58;;;;;;;9.30;3.97;;;14.90;62.40;;;13.88;36.68;101678.91;3509690;40;102284;-39
2021/05/03 10:03:42;;;;;;;6.75;3.50;;;14.90;63.50;;;14.01;36.00;101665.19;3509051;40;102379;-39
2021/05/03 10:06:15;;;;;;;6.93;3.75;;;15.00;62.90;;;13.95;38.82;101657.81;3509744;40;102373;-39
2021/05/03 10:08:51;;;;;;;6.13;3.78;;;15.10;67.50;;;13.94;40.62;101659.69;3510013;40;103133;-39
2021/05/03 10:11:23;;;;;;;6.95;3.40;;;15.00;70.40;;;13.94;36.09;101654.22;3509653;40;104167;-39
2021/05/03 10:13:53;;;;;;;9.40;3.60;;;15.10;62.50;;;14.02;34.30;101646.81;3509629;40;102665;-39
2021/05/03 10:16:21;;;;;;;4.70;3.20;;;15.20;59.00;;;13.80;34.67;101653.41;3509960;40;102800;-38
2021/05/03 10:18:49;;;;;;;7.45;3.90;;;15.00;59.40;;;13.90;34.29;101650.22;3508939;40;102379;-39
2021/05/03 10:21:16;;;;;;;5.85;3.72;;;15.00;58.90;;;13.78;37.35;101649.19;3509093;40;102530;-38
2021/05/03 10:23:45;;;;;;;6.43;3.60;;;15.00;62.90;;;13.83;35.59;101637.56;3509326;40;102516;-39
2021/05/03 10:26:13;;;;;;;6.20;3.50;;;15.00;59.80;;;14.08;33.98;101640.47;3509931;40;102417;-39
2021/05/03 10:28:53;;;;;;;7.43;3.75;;;15.10;58.40;;;13.99;37.05;101639.88;3508902;40;104103;-39
2021/05/03 10:31:23;;;;;;;6.57;3.83;;;15.20;61.30;;;13.97;34.80;101635.63;3509332;40;103296;-39
2021/05/03 10:33:53;;;;;;;5.95;3.63;;;15.10;59.30;;;13.93;35.50;101632.50;3510247;40;103264;-39
2021/05/03 10:36:33;;;;;;;5.38;3.63;;;15.10;60.20;;;14.03;34.78;101626.53;3509845;40;102337;-39
2021/05/03 10:39:32;;;;;;;6.07;4.00;;;15.10;59.60;;;14.42;37.12;101621.97;3508725;40;102367;-39
2021/05/03 10:42:11;;;;;;;6.15;4.07;;;15.30;59.40;;;14.88;36.06;101620.03;3503481;40;103224;-39